Time;durP1;ratioP1;P1;durP2;ratioP2;P2;SDS_P1;SDS_P2;PMS_P1;PMS_P2;Temp;Humidity;BMP_temperature;BMP_pressure;BME280_temperature;BME280_humidity;BME280_pressure;Samples;Min_cycle;Max_cycle;Signal;HPM_P1;HPM_P2
2022/04/19 00:01:30;;;;;;;3.45;2.05;;;7.10;99.90;;;;;;5095236;28;20030;-50
2022/04/19 00:03:55;;;;;;;4.75;2.33;;;7.00;99.90;;;;;;5076657;28;20020;-53
2022/04/19 00:06:21;;;;;;;5.32;2.10;;;7.00;99.90;;;;;;5077192;28;20069;-51
2022/04/19 00:08:50;;;;;;;5.07;2.20;;;6.90;99.90;;;;;;5094941;28;20020;-56
2022/04/19 00:11:15;;;;;;;2.83;1.85;;;6.90;99.90;;;;;;5094561;28;20016;-53
2022/04/19 00:13:41;;;;;;;4.43;2.25;;;6.90;99.90;;;;;;5077431;28;20024;-53
2022/04/19 00:16:06;;;;;;;10.75;2.28;;;6.80;99.90;;;;;;5077317;28;20481;-53
2022/04/19 00:18:32;;;;;;;9.73;2.47;;;6.80;99.90;;;;;;5076408;28;20394;-52
2022/04/19 00:20:59;;;;;;;6.28;2.10;;;6.90;99.90;;;;;;5076635;28;20081;-53
2022/04/19 00:23:24;;;;;;;6.45;2.30;;;7.00;99.90;;;;;;5076458;28;20021;-51
2022/04/19 00:25:52;;;;;;;3.58;2.05;;;6.90;99.90;;;;;;5076318;28;20032;-50
2022/04/19 00:28:18;;;;;;;8.27;2.42;;;7.00;99.90;;;;;;5076288;28;20024;-54
2022/04/19 00:30:46;;;;;;;4.80;2.00;;;6.90;99.90;;;;;;5094302;28;20032;-52
2022/04/19 00:33:12;;;;;;;2.80;1.85;;;6.90;99.90;;;;;;5094484;28;20047;-52
2022/04/19 00:35:38;;;;;;;4.10;2.15;;;6.80;99.90;;;;;;5094270;28;20024;-52
2022/04/19 00:38:04;;;;;;;4.55;2.55;;;6.60;99.90;;;;;;5076000;28;20035;-51
2022/04/19 00:40:30;;;;;;;6.40;2.30;;;6.50;99.90;;;;;;5076038;28;20115;-52
2022/04/19 00:42:57;;;;;;;4.30;2.75;;;6.40;99.90;;;;;;5094391;28;20103;-54
2022/04/19 00:45:23;;;;;;;3.15;1.92;;;6.30;99.90;;;;;;5077011;28;20020;-53
2022/04/19 00:47:50;;;;;;;4.28;2.15;;;6.20;99.90;;;;;;5094110;28;20020;-51
2022/04/19 00:50:16;;;;;;;3.53;2.20;;;6.10;99.90;;;;;;5075786;28;20027;-51
2022/04/19 00:52:46;;;;;;;2.55;2.03;;;6.10;99.90;;;;;;5094511;28;20066;-57
2022/04/19 00:55:12;;;;;;;4.28;2.75;;;6.20;99.90;;;;;;5075926;28;20016;-53
2022/04/19 00:57:39;;;;;;;3.00;2.20;;;6.30;99.90;;;;;;5076243;28;20043;-53
2022/04/19 01:00:08;;;;;;;4.57;2.22;;;6.30;99.90;;;;;;5075688;28;20398;-50
2022/04/19 01:02:36;;;;;;;4.25;2.45;;;6.20;99.90;;;;;;5075490;28;20020;-51
2022/04/19 01:05:02;;;;;;;2.08;1.67;;;6.20;99.90;;;;;;5094080;28;20023;-55
2022/04/19 01:07:29;;;;;;;2.30;1.75;;;6.30;99.90;;;;;;5075562;28;20111;-50
2022/04/19 01:09:54;;;;;;;3.17;2.13;;;6.30;99.90;;;;;;5075429;28;20077;-52
2022/04/19 01:15:08;;;;;;;3.22;2.00;;;6.20;99.90;;;;;;5093782;28;20107;-52
2022/04/19 01:17:39;;;;;;;5.50;2.30;;;6.10;99.90;;;;;;5093515;28;20032;-49
2022/04/19 01:20:05;;;;;;;3.92;2.42;;;6.10;99.90;;;;;;5075604;28;20027;-50
2022/04/19 01:22:38;;;;;;;5.47;2.10;;;6.20;99.90;;;;;;5075696;28;20517;-52
2022/04/19 01:25:05;;;;;;;2.95;2.00;;;6.10;99.90;;;;;;5093614;28;20024;-51
2022/04/19 01:27:31;;;;;;;3.53;2.50;;;6.10;99.90;;;;;;5075402;28;20024;-51
2022/04/19 01:30:01;;;;;;;3.42;1.90;;;6.10;99.90;;;;;;5075140;28;20031;-53
2022/04/19 01:32:30;;;;;;;4.30;2.35;;;6.10;99.90;;;;;;5093777;28;20024;-53
2022/04/19 01:35:09;;;;;;;4.72;2.33;;;6.10;99.90;;;;;;5093327;28;20027;-51
2022/04/19 01:37:36;;;;;;;3.72;2.45;;;6.10;99.90;;;;;;5075251;28;20028;-49
2022/04/19 01:40:18;;;;;;;4.75;2.60;;;6.00;99.90;;;;;;5093529;28;20056;-51
2022/04/19 01:43:02;;;;;;;4.80;2.42;;;5.90;99.90;;;;;;5075212;28;20024;-52
2022/04/19 01:45:31;;;;;;;5.00;2.50;;;5.90;99.90;;;;;;5075825;28;20035;-52
2022/04/19 01:47:58;;;;;;;4.32;2.55;;;5.90;99.90;;;;;;5075331;28;20067;-52
2022/04/19 01:50:27;;;;;;;3.88;2.55;;;5.80;99.90;;;;;;5075828;28;20052;-52
2022/04/19 01:52:56;;;;;;;3.58;1.90;;;5.80;99.90;;;;;;5075395;28;20106;-52
2022/04/19 01:55:23;;;;;;;4.97;2.38;;;5.80;99.90;;;;;;5093242;28;20028;-53
2022/04/19 01:57:54;;;;;;;4.40;2.58;;;5.80;99.90;;;;;;5075510;28;20031;-51
2022/04/19 02:00:20;;;;;;;12.45;2.85;;;5.80;99.90;;;;;;5093136;28;20048;-52
2022/04/19 02:02:46;;;;;;;4.20;2.03;;;5.70;99.90;;;;;;5093420;28;20059;-51
2022/04/19 02:05:13;;;;;;;2.92;1.92;;;5.60;99.90;;;;;;5075538;28;20024;-50
2022/04/19 02:07:40;;;;;;;9.70;2.40;;;5.80;99.90;;;;;;5075798;28;20048;-56
2022/04/19 02:10:08;;;;;;;3.95;2.20;;;5.80;99.90;;;;;;5078037;28;20016;-53
2022/04/19 02:12:34;;;;;;;2.97;2.38;;;5.80;99.90;;;;;;5078842;28;20024;-50
2022/04/19 02:15:00;;;;;;;4.65;2.30;;;5.80;99.90;;;;;;5097127;28;20035;-52
2022/04/19 02:17:26;;;;;;;3.47;2.38;;;5.80;99.90;;;;;;5078827;28;20031;-52
2022/04/19 02:20:03;;;;;;;5.00;2.50;;;5.70;99.90;;;;;;5097058;28;20020;-51
2022/04/19 02:22:30;;;;;;;5.32;2.75;;;5.60;99.90;;;;;;5079150;28;20025;-50
2022/04/19 02:24:57;;;;;;;7.03;2.33;;;5.60;99.90;;;;;;5078661;28;20024;-50
2022/04/19 02:27:24;;;;;;;2.83;1.85;;;5.60;99.90;;;;;;5078543;28;20021;-53
2022/04/19 02:29:50;;;;;;;3.35;2.35;;;5.50;99.90;;;;;;5078680;28;20025;-53
2022/04/19 02:32:16;;;;;;;3.90;2.30;;;5.40;99.90;;;;;;5078886;28;20028;-57
2022/04/19 02:34:42;;;;;;;5.05;2.55;;;5.30;99.90;;;;;;5078919;28;20024;-54
2022/04/19 02:37:08;;;;;;;3.65;2.20;;;5.40;99.90;;;;;;5078834;28;20059;-55
2022/04/19 02:39:36;;;;;;;2.95;2.47;;;5.40;99.90;;;;;;5096397;28;20024;-53
2022/04/19 02:42:06;;;;;;;6.20;3.03;;;5.40;99.90;;;;;;5079135;28;20085;-50
2022/04/19 02:44:32;;;;;;;4.88;2.25;;;5.40;99.90;;;;;;5096721;28;20082;-50
2022/04/19 02:46:58;;;;;;;3.35;2.20;;;5.40;99.90;;;;;;5096497;28;20020;-53
2022/04/19 02:49:24;;;;;;;6.78;2.08;;;5.30;99.90;;;;;;5078257;28;20115;-55
2022/04/19 02:51:50;;;;;;;3.85;2.20;;;5.20;99.90;;;;;;5078381;28;20129;-53
2022/04/19 02:54:17;;;;;;;3.67;2.30;;;5.30;99.90;;;;;;5078398;28;20382;-50
2022/04/19 02:56:42;;;;;;;3.55;2.10;;;5.20;99.90;;;;;;5078021;28;20052;-52
2022/04/19 02:59:09;;;;;;;4.15;2.50;;;5.20;99.90;;;;;;5096551;28;20059;-52
2022/04/19 03:01:35;;;;;;;2.83;2.30;;;5.00;99.90;;;;;;5096274;28;20013;-52
2022/04/19 03:04:01;;;;;;;8.20;2.53;;;5.00;99.90;;;;;;5095970;28;20024;-51
2022/04/19 03:06:27;;;;;;;6.03;2.42;;;4.90;99.90;;;;;;5096137;28;20024;-52
2022/04/19 03:08:52;;;;;;;4.85;2.30;;;4.80;99.90;;;;;;5077874;28;20158;-54
2022/04/19 03:11:18;;;;;;;4.20;2.58;;;4.90;99.90;;;;;;5077826;28;20023;-52
2022/04/19 03:13:43;;;;;;;4.10;2.65;;;5.00;99.90;;;;;;5077759;28;20016;-53
2022/04/19 03:16:13;;;;;;;4.70;2.30;;;4.90;99.90;;;;;;5078661;28;20020;-52
2022/04/19 03:18:41;;;;;;;5.90;2.75;;;4.90;99.90;;;;;;5095814;28;20020;-55
2022/04/19 03:21:10;;;;;;;5.47;2.47;;;5.00;99.90;;;;;;5094645;28;20074;-55
2022/04/19 03:29:06;;;;;;;6.95;2.63;;;5.10;99.90;;;;;;5095498;28;20028;-55
2022/04/19 03:31:32;;;;;;;2.88;2.05;;;5.10;99.90;;;;;;5095849;28;20032;-54
2022/04/19 03:33:58;;;;;;;4.63;2.40;;;5.00;99.90;;;;;;5077441;28;20032;-53
2022/04/19 03:36:24;;;;;;;4.03;2.45;;;4.90;99.90;;;;;;5095520;28;20020;-52
2022/04/19 03:38:49;;;;;;;4.28;2.55;;;4.90;99.90;;;;;;5095230;28;20038;-56
2022/04/19 03:41:15;;;;;;;4.38;2.60;;;4.80;99.90;;;;;;5077359;28;20080;-53
2022/04/19 03:43:41;;;;;;;3.70;2.22;;;4.80;99.90;;;;;;5078079;28;20024;-55
2022/04/19 03:46:11;;;;;;;3.03;2.30;;;4.90;99.90;;;;;;5095339;28;20012;-51
2022/04/19 03:48:36;;;;;;;3.47;2.13;;;5.00;99.90;;;;;;5095313;28;20024;-52
2022/04/19 03:51:03;;;;;;;6.60;1.98;;;5.00;99.90;;;;;;5095164;28;20027;-56
2022/04/19 03:53:32;;;;;;;3.30;2.15;;;5.00;99.90;;;;;;5095103;28;20028;-56
2022/04/19 03:56:03;;;;;;;3.65;1.95;;;5.00;99.90;;;;;;5076959;28;20027;-53
2022/04/19 03:58:33;;;;;;;2.95;1.60;;;5.00;99.90;;;;;;5094784;28;20528;-54
2022/04/19 04:01:00;;;;;;;2.60;1.92;;;5.00;99.90;;;;;;5076862;28;20051;-54
2022/04/19 04:03:26;;;;;;;3.50;2.20;;;5.10;99.90;;;;;;5077234;28;20076;-52
2022/04/19 04:05:51;;;;;;;4.03;2.35;;;5.10;99.90;;;;;;5076770;28;20016;-54
2022/04/19 04:08:17;;;;;;;3.75;2.10;;;5.10;99.90;;;;;;5094836;28;20032;-53
2022/04/19 04:10:43;;;;;;;4.13;2.00;;;5.10;99.90;;;;;;5076488;28;20025;-55
2022/04/19 04:13:09;;;;;;;4.35;2.53;;;5.10;99.90;;;;;;5077587;28;20028;-56
2022/04/19 04:15:35;;;;;;;4.85;2.10;;;5.00;99.90;;;;;;5094560;28;20478;-57
2022/04/19 04:18:01;;;;;;;2.58;2.28;;;4.90;99.90;;;;;;5094525;28;20031;-52
2022/04/19 04:20:27;;;;;;;5.45;2.30;;;4.90;99.90;;;;;;5094437;28;20035;-53
2022/04/19 04:22:52;;;;;;;6.18;2.03;;;4.90;99.90;;;;;;5076276;28;20020;-51
2022/04/19 04:25:18;;;;;;;3.75;2.38;;;4.90;99.90;;;;;;5094408;28;20051;-53
2022/04/19 04:27:43;;;;;;;3.95;2.35;;;4.90;99.90;;;;;;5076078;28;20101;-53
2022/04/19 04:30:09;;;;;;;3.45;2.20;;;4.90;99.90;;;;;;5076155;28;20032;-52
2022/04/19 04:32:35;;;;;;;3.20;1.95;;;5.00;99.90;;;;;;5076204;28;20028;-55
2022/04/19 04:35:00;;;;;;;3.28;2.08;;;5.00;99.90;;;;;;5076891;28;20028;-51
2022/04/19 04:37:26;;;;;;;2.75;2.03;;;5.00;99.90;;;;;;5095065;28;20088;-52
2022/04/19 04:39:52;;;;;;;5.80;2.15;;;5.00;99.90;;;;;;5076161;28;20110;-51
2022/04/19 04:42:18;;;;;;;6.38;2.67;;;5.00;99.90;;;;;;5094432;28;20020;-49
2022/04/19 04:44:43;;;;;;;3.25;2.28;;;5.00;99.90;;;;;;5094386;28;20016;-54
2022/04/19 04:49:57;;;;;;;5.47;2.22;;;5.20;99.90;;;;;;5094431;28;20057;-50
2022/04/19 04:52:23;;;;;;;3.47;2.10;;;5.30;99.90;;;;;;5094492;28;20024;-51
2022/04/19 04:54:48;;;;;;;4.93;2.53;;;5.60;99.90;;;;;;5076082;28;20028;-53
2022/04/19 04:57:14;;;;;;;5.57;3.22;;;5.90;99.90;;;;;;5076610;28;20019;-53
2022/04/19 04:59:40;;;;;;;4.75;3.00;;;5.90;99.90;;;;;;5075921;28;20154;-52
2022/04/19 05:02:06;;;;;;;5.10;3.08;;;6.10;99.90;;;;;;5076864;28;20115;-52
2022/04/19 05:04:33;;;;;;;5.43;2.55;;;6.20;99.90;;;;;;5076114;28;20017;-50
2022/04/19 05:06:59;;;;;;;5.57;3.00;;;6.50;99.90;;;;;;5094166;28;20043;-53
2022/04/19 05:09:24;;;;;;;4.03;2.42;;;6.90;99.90;;;;;;5076274;28;20024;-55
2022/04/19 05:11:53;;;;;;;5.20;2.10;;;7.30;99.90;;;;;;5076106;28;20058;-49
2022/04/19 05:14:19;;;;;;;3.97;2.10;;;7.70;99.90;;;;;;5093934;28;20486;-55
2022/04/19 05:16:45;;;;;;;4.88;2.38;;;8.10;99.90;;;;;;5076231;28;20032;-52
2022/04/19 05:19:11;;;;;;;3.97;2.00;;;8.50;99.90;;;;;;5076123;28;20032;-51
2022/04/19 05:21:39;;;;;;;4.55;1.88;;;9.10;99.90;;;;;;5075701;28;20020;-53
2022/04/19 05:24:05;;;;;;;3.35;2.15;;;9.60;99.90;;;;;;5075594;28;20025;-50
2022/04/19 05:26:32;;;;;;;3.58;1.85;;;10.10;99.90;;;;;;5076437;28;20024;-52
2022/04/19 05:28:57;;;;;;;4.65;2.75;;;10.30;99.90;;;;;;5076530;28;20024;-56
2022/04/19 05:31:24;;;;;;;3.95;2.10;;;10.80;99.90;;;;;;5075627;28;20065;-54
2022/04/19 05:33:50;;;;;;;6.72;2.60;;;11.30;99.90;;;;;;5093658;28;20020;-54
2022/04/19 05:36:15;;;;;;;4.15;2.25;;;11.70;99.90;;;;;;5075744;28;20020;-54
2022/04/19 05:38:41;;;;;;;4.53;2.10;;;12.20;99.90;;;;;;5075479;28;20035;-49
2022/04/19 05:41:07;;;;;;;5.25;2.70;;;12.40;99.90;;;;;;5075446;28;20028;-54
2022/04/19 05:43:32;;;;;;;6.95;5.03;;;12.70;99.90;;;;;;5074940;28;20020;-52
2022/04/19 05:45:58;;;;;;;12.98;8.45;;;13.20;99.90;;;;;;5093477;28;20028;-52
2022/04/19 05:48:25;;;;;;;13.15;8.73;;;13.60;99.90;;;;;;5075789;28;20032;-50
2022/04/19 05:50:51;;;;;;;18.00;11.30;;;13.90;99.90;;;;;;5075404;28;20024;-54
2022/04/19 05:53:16;;;;;;;15.88;9.30;;;14.40;99.90;;;;;;5076215;28;20024;-53
2022/04/19 05:55:42;;;;;;;12.23;6.60;;;15.00;99.90;;;;;;5093414;28;20077;-51
2022/04/19 05:58:08;;;;;;;9.23;3.95;;;15.50;99.90;;;;;;5075044;28;20020;-53
2022/04/19 06:00:34;;;;;;;4.32;3.08;;;15.80;99.90;;;;;;5075159;28;20020;-55
2022/04/19 06:05:44;;;;;;;3.85;2.42;;;16.70;99.90;;;;;;5093919;28;20543;-55
2022/04/19 06:08:09;;;;;;;3.35;2.55;;;17.30;96.30;;;;;;5093267;28;20027;-54
2022/04/19 06:10:35;;;;;;;6.47;3.05;;;17.30;94.20;;;;;;5075084;28;20020;-54
2022/04/19 06:13:00;;;;;;;2.65;2.35;;;17.80;94.20;;;;;;5076321;28;20031;-52
2022/04/19 06:15:26;;;;;;;8.90;3.00;;;18.20;93.60;;;;;;5093448;28;20142;-51
2022/04/19 06:17:52;;;;;;;4.65;2.33;;;18.30;91.30;;;;;;5075366;28;20073;-52
2022/04/19 06:20:17;;;;;;;6.15;3.20;;;18.90;92.10;;;;;;5074999;28;20025;-51
2022/04/19 06:22:44;;;;;;;6.05;2.90;;;19.40;86.80;;;;;;5075235;28;20035;-50
2022/04/19 06:25:10;;;;;;;11.10;3.60;;;20.00;85.80;;;;;;5075305;28;20020;-51
2022/04/19 06:27:36;;;;;;;7.72;3.22;;;20.20;82.60;;;;;;5075888;28;20021;-53
2022/04/19 06:30:02;;;;;;;5.93;3.47;;;20.80;81.40;;;;;;5075018;28;20119;-52
2022/04/19 06:32:28;;;;;;;5.25;3.50;;;21.00;77.50;;;;;;5093039;28;20028;-55
2022/04/19 06:34:53;;;;;;;5.43;3.45;;;20.60;78.50;;;;;;5074882;28;20035;-50
2022/04/19 06:37:20;;;;;;;6.00;3.58;;;21.50;76.00;;;;;;5075145;28;20028;-50
2022/04/19 06:39:46;;;;;;;4.95;3.72;;;21.70;75.80;;;;;;5075605;28;20051;-57
2022/04/19 06:42:12;;;;;;;5.35;3.50;;;21.90;70.90;;;;;;5075613;28;20047;-52
2022/04/19 06:44:38;;;;;;;4.85;3.47;;;21.70;71.80;;;;;;5092905;28;20024;-54
2022/04/19 06:47:04;;;;;;;6.35;4.93;;;21.80;70.80;;;;;;5075149;28;20020;-52
2022/04/19 06:49:29;;;;;;;4.90;3.53;;;22.20;70.20;;;;;;5092823;28;20092;-55
2022/04/19 06:51:55;;;;;;;9.32;3.88;;;23.20;68.70;;;;;;5074772;28;20111;-53
2022/04/19 06:54:21;;;;;;;5.28;3.53;;;23.70;65.80;;;;;;5074866;28;20031;-51
2022/04/19 06:56:46;;;;;;;6.97;3.40;;;23.80;64.50;;;;;;5079113;28;20097;-52
2022/04/19 06:59:13;;;;;;;8.95;3.70;;;24.80;63.00;;;;;;5078300;28;20058;-57
2022/04/19 07:01:40;;;;;;;3.83;3.33;;;24.60;60.80;;;;;;5077965;28;20478;-53
2022/04/19 07:04:08;;;;;;;5.65;3.38;;;25.10;63.50;;;;;;5078122;28;20069;-50
2022/04/19 07:06:34;;;;;;;4.72;3.47;;;25.90;59.00;;;;;;5096606;28;20052;-51
2022/04/19 07:08:59;;;;;;;10.38;6.32;;;26.80;57.80;;;;;;5078358;28;20024;-53
2022/04/19 07:11:25;;;;;;;5.60;3.47;;;27.30;56.90;;;;;;5094033;28;20036;-57
2022/04/19 07:13:51;;;;;;;6.53;3.90;;;27.30;55.30;;;;;;5058028;28;20033;-54
2022/04/19 07:16:17;;;;;;;5.70;3.90;;;27.10;55.20;;;;;;5075838;28;20021;-54
2022/04/19 07:18:42;;;;;;;5.97;3.65;;;28.00;55.40;;;;;;5057883;28;20500;-54
2022/04/19 07:26:45;;;;;;;4.90;4.40;;;29.20;55.00;;;;;;5076302;28;20062;-56
2022/04/19 07:29:12;;;;;;;6.00;4.05;;;29.00;49.30;;;;;;5074373;28;20584;-57
2022/04/19 07:31:43;;;;;;;5.60;3.75;;;29.30;50.00;;;;;;5075943;28;20146;-52
2022/04/19 07:34:09;;;;;;;;;;;29.60;50.80;;;;;;5078183;28;20032;-53
2022/04/19 07:36:39;;;;;;;7.05;4.20;;;29.50;48.30;;;;;;5095712;28;19911;-56
2022/04/19 07:39:05;;;;;;;;;;;28.60;48.70;;;;;;5095838;28;20016;-55
2022/04/19 07:41:31;;;;;;;7.60;4.70;;;29.10;48.80;;;;;;5066338;28;19915;-57
2022/04/19 07:43:57;;;;;;;5.28;4.07;;;30.00;49.10;;;;;;5074194;28;20023;-55
2022/04/19 07:46:23;;;;;;;10.38;7.05;;;30.50;46.90;;;;;;5075567;28;20017;-53
2022/04/19 07:48:51;;;;;;;5.13;4.13;;;30.80;47.20;;;;;;5074014;28;20021;-52
2022/04/19 07:51:18;;;;;;;6.35;4.22;;;30.70;46.40;;;;;;5075732;28;20059;-53
2022/04/19 07:53:44;;;;;;;6.28;4.07;;;30.70;47.20;;;;;;5076918;28;20084;-53
2022/04/19 07:56:09;;;;;;;4.60;4.18;;;31.20;43.90;;;;;;5074243;28;20120;-53
2022/04/19 07:58:35;;;;;;;7.13;3.78;;;31.70;44.80;;;;;;5073830;28;20036;-57
2022/04/19 08:01:01;;;;;;;4.40;3.88;;;31.70;43.10;;;;;;5075336;28;20020;-56
2022/04/19 08:03:27;;;;;;;6.82;3.72;;;31.50;45.00;;;;;;5090882;28;20017;-57
2022/04/19 08:05:54;;;;;;;4.45;3.78;;;32.50;45.60;;;;;;5094903;28;20020;-54
2022/04/19 08:08:21;;;;;;;4.95;3.92;;;33.00;42.70;;;;;;5077649;28;20024;-55
2022/04/19 08:10:47;;;;;;;8.90;4.40;;;33.00;44.20;;;;;;5076874;28;20024;-58
2022/04/19 08:13:13;;;;;;;7.43;4.18;;;33.70;42.70;;;;;;5077349;28;20031;-53
2022/04/19 08:15:39;;;;;;;5.68;3.90;;;34.00;41.60;;;;;;5077675;28;20398;-55
2022/04/19 08:18:04;;;;;;;6.18;4.10;;;33.50;41.00;;;;;;5076710;28;20024;-55
2022/04/19 08:20:30;;;;;;;5.43;3.75;;;33.50;43.30;;;;;;5076841;28;20016;-51
2022/04/19 08:22:56;;;;;;;9.10;4.75;;;32.70;42.80;;;;;;5076714;28;20027;-53
2022/04/19 08:25:22;;;;;;;7.28;4.57;;;32.20;41.10;;;;;;5077090;28;20474;-51
2022/04/19 08:27:48;;;;;;;8.13;4.38;;;31.50;42.10;;;;;;5075223;28;20023;-57
2022/04/19 08:30:17;;;;;;;9.73;4.50;;;31.60;41.60;;;;;;5074235;28;20111;-58
2022/04/19 08:32:45;;;;;;;6.63;3.80;;;30.30;42.40;;;;;;5056247;28;20386;-54
2022/04/19 08:35:12;;;;;;;7.05;4.38;;;31.60;43.80;;;;;;5090415;28;20574;-50
2022/04/19 08:37:38;;;;;;;7.07;4.30;;;32.40;43.20;;;;;;5071122;28;20020;-56
2022/04/19 08:40:19;;;;;;;8.77;4.00;;;33.50;41.00;;;;;;5075819;28;20028;-52
2022/04/19 08:42:46;;;;;;;6.25;3.95;;;33.50;41.10;;;;;;5056244;28;20028;-56
2022/04/19 08:45:15;;;;;;;5.85;3.70;;;34.10;40.00;;;;;;5071558;28;20021;-55
2022/04/19 08:47:43;;;;;;;7.50;4.03;;;34.20;40.50;;;;;;5076407;28;20432;-57
2022/04/19 08:50:17;;;;;;;6.05;4.82;;;35.00;40.00;;;;;;5076334;28;20030;-55
2022/04/19 08:58:44;;;;;;;7.40;4.93;;;35.50;41.10;;;;;;5080538;28;20034;-60
2022/04/19 09:01:10;;;;;;;7.93;4.65;;;36.00;38.00;;;;;;5071769;28;20016;-57
2022/04/19 09:03:38;;;;;;;7.55;4.90;;;35.80;39.00;;;;;;5061157;28;20028;-58
2022/04/19 09:06:03;;;;;;;9.68;4.90;;;36.10;37.20;;;;;;5056152;28;20017;-55
2022/04/19 09:08:29;;;;;;;6.80;4.28;;;35.00;38.40;;;;;;5055716;28;20037;-58
2022/04/19 09:11:06;;;;;;;6.72;4.78;;;34.50;39.40;;;;;;5055853;28;20028;-60
2022/04/19 09:13:32;;;;;;;6.93;4.53;;;34.10;38.50;;;;;;5056112;28;20055;-58
2022/04/19 09:16:06;;;;;;;8.35;4.43;;;33.10;38.80;;;;;;5055960;28;20047;-59
2022/04/19 09:18:35;;;;;;;6.95;5.13;;;34.40;39.30;;;;;;5073047;28;20059;-57
2022/04/19 09:21:05;;;;;;;5.90;4.95;;;33.80;35.90;;;;;;5055491;28;20572;-58
2022/04/19 09:23:32;;;;;;;5.60;4.05;;;32.00;36.50;;;;;;5055561;28;20383;-59
2022/04/19 09:26:05;;;;;;;6.95;4.63;;;32.10;39.20;;;;;;5055521;28;20115;-57
2022/04/19 09:28:32;;;;;;;6.28;4.85;;;32.10;37.60;;;;;;5055473;28;20036;-59
2022/04/19 09:30:59;;;;;;;4.70;3.97;;;30.80;37.00;;;;;;5073171;28;20028;-58
2022/04/19 09:33:29;;;;;;;5.72;4.80;;;29.00;38.60;;;;;;5055322;28;20514;-54
2022/04/19 09:36:04;;;;;;;4.85;4.30;;;28.50;38.10;;;;;;5055411;28;20027;-51
2022/04/19 09:38:41;;;;;;;6.57;4.60;;;28.30;39.60;;;;;;5055607;28;20066;-56
2022/04/19 09:41:10;;;;;;;5.93;4.70;;;28.30;40.30;;;;;;5073546;28;20099;-53
2022/04/19 09:43:37;;;;;;;8.87;4.80;;;29.80;39.40;;;;;;5073302;28;20021;-55
2022/04/19 09:46:04;;;;;;;6.55;5.05;;;31.50;38.20;;;;;;5055659;28;20051;-51
2022/04/19 09:48:39;;;;;;;8.18;4.88;;;32.40;39.10;;;;;;5055611;28;20028;-55
2022/04/19 09:51:10;;;;;;;5.90;4.75;;;32.00;37.20;;;;;;5073041;28;20032;-56
2022/04/19 09:53:44;;;;;;;5.93;4.75;;;32.80;37.50;;;;;;5055191;28;20029;-55
2022/04/19 09:56:14;;;;;;;6.60;4.57;;;31.80;37.20;;;;;;5073342;28;20017;-51
2022/04/19 09:58:44;;;;;;;5.90;3.58;;;29.40;37.90;;;;;;5055524;28;20032;-49
2022/04/19 10:09:32;;;;;;;6.30;3.75;;;27.10;40.80;;;;;;5093537;28;20034;-58
2022/04/19 10:11:58;;;;;;;6.18;3.72;;;26.70;40.80;;;;;;5093143;28;20072;-52
2022/04/19 10:14:24;;;;;;;5.38;3.00;;;25.90;41.70;;;;;;5055942;28;20041;-54
2022/04/19 10:16:50;;;;;;;6.18;3.38;;;25.80;41.50;;;;;;5067623;28;20024;-52
2022/04/19 10:19:17;;;;;;;4.53;3.20;;;25.50;43.00;;;;;;5054808;28;20036;-55
2022/04/19 10:21:44;;;;;;;3.10;2.50;;;25.20;42.40;;;;;;5072789;28;20048;-55
2022/04/19 10:24:17;;;;;;;5.35;2.70;;;24.70;43.10;;;;;;5077187;28;20479;-49
2022/04/19 10:26:52;;;;;;;4.50;2.70;;;23.40;44.00;;;;;;5074964;28;20482;-51
2022/04/19 10:29:22;;;;;;;4.90;2.50;;;22.80;46.10;;;;;;5075427;28;20024;-53
2022/04/19 10:32:08;;;;;;;3.60;2.80;;;22.90;45.40;;;;;;5095039;28;20440;-54
2022/04/19 10:34:36;;;;;;;3.50;2.63;;;22.40;46.80;;;;;;5077487;28;20032;-51
2022/04/19 10:37:19;;;;;;;3.78;2.42;;;22.90;47.40;;;;;;5085075;28;20017;-52
2022/04/19 10:39:46;;;;;;;3.42;2.45;;;22.70;47.60;;;;;;5058892;28;20028;-50
2022/04/19 10:42:34;;;;;;;4.75;2.75;;;21.20;48.50;;;;;;5058393;28;20048;-55
2022/04/19 10:45:12;;;;;;;4.35;2.25;;;20.70;50.50;;;;;;5076723;28;20039;-53
2022/04/19 10:47:53;;;;;;;4.57;2.53;;;21.40;50.40;;;;;;5058270;28;20205;-55
2022/04/19 10:50:28;;;;;;;5.03;2.60;;;21.10;51.20;;;;;;5058207;28;20024;-51
2022/04/19 10:53:08;;;;;;;4.53;2.78;;;20.80;50.80;;;;;;5058346;28;20059;-51
2022/04/19 10:55:41;;;;;;;4.30;2.35;;;20.60;51.60;;;;;;5076163;28;20025;-55
2022/04/19 10:58:16;;;;;;;8.52;2.70;;;20.90;51.90;;;;;;5075954;28;20021;-51
2022/04/19 11:00:47;;;;;;;5.63;2.30;;;20.50;52.60;;;;;;5058091;28;20025;-50
2022/04/19 11:03:19;;;;;;;6.03;2.80;;;20.00;51.20;;;;;;5066468;28;20506;-51
2022/04/19 11:05:52;;;;;;;3.75;2.50;;;19.50;52.80;;;;;;5078261;28;20466;-49
2022/04/19 11:08:29;;;;;;;4.70;2.47;;;19.10;53.30;;;;;;5096224;28;20086;-51
2022/04/19 11:10:58;;;;;;;3.47;2.15;;;19.70;53.30;;;;;;5078289;28;20439;-55
2022/04/19 11:13:27;;;;;;;3.97;3.03;;;20.10;52.40;;;;;;5096024;28;20024;-49
2022/04/19 11:16:02;;;;;;;5.72;2.20;;;20.10;53.60;;;;;;5063068;28;20107;-53
2022/04/19 11:18:29;;;;;;;3.78;2.05;;;20.00;53.20;;;;;;5079123;28;20071;-49
2022/04/19 11:21:03;;;;;;;5.00;1.75;;;20.00;52.50;;;;;;5071140;28;20394;-54
2022/04/19 11:23:49;;;;;;;3.97;1.77;;;19.80;54.20;;;;;;5078438;28;20024;-52
2022/04/19 11:26:26;;;;;;;5.07;1.67;;;19.50;53.40;;;;;;5095836;28;20031;-56
2022/04/19 11:29:10;;;;;;;2.05;1.48;;;19.30;54.10;;;;;;5077754;28;20234;-53
2022/04/19 11:31:45;;;;;;;4.82;1.42;;;19.70;54.30;;;;;;5095542;28;20510;-55
2022/04/19 11:34:11;;;;;;;6.50;2.10;;;19.20;54.00;;;;;;5077259;28;20119;-51
2022/04/19 11:36:37;;;;;;;3.08;1.50;;;18.80;55.20;;;;;;5095556;28;20146;-52
2022/04/19 11:39:03;;;;;;;3.95;1.70;;;18.50;55.10;;;;;;5095726;28;20110;-52
2022/04/19 11:46:45;;;;;;;3.80;2.10;;;18.40;56.50;;;;;;5095849;28;20016;-49
2022/04/19 11:49:34;;;;;;;1.95;1.30;;;18.30;56.00;;;;;;5077863;28;20089;-54
2022/04/19 11:52:09;;;;;;;3.25;1.80;;;18.30;55.60;;;;;;5077558;28;20051;-49
2022/04/19 11:54:35;;;;;;;4.43;1.70;;;18.40;56.30;;;;;;5077426;28;20035;-52
2022/04/19 11:57:03;;;;;;;3.53;1.67;;;18.60;56.90;;;;;;5060377;28;20550;-55
2022/04/19 11:59:43;;;;;;;4.65;1.83;;;18.60;56.50;;;;;;5061830;28;20028;-49
2022/04/19 12:02:36;;;;;;;3.67;1.50;;;18.40;55.30;;;;;;5074941;28;20021;-48
2022/04/19 12:05:03;;;;;;;2.70;1.80;;;18.30;57.40;;;;;;5056875;28;20044;-51
2022/04/19 12:07:28;;;;;;;3.08;1.90;;;18.10;56.70;;;;;;5056931;28;20039;-52
2022/04/19 12:09:58;;;;;;;5.53;1.98;;;18.00;57.50;;;;;;5066745;28;20027;-53
2022/04/19 12:12:24;;;;;;;2.22;1.40;;;18.30;57.80;;;;;;5094863;28;20020;-52
2022/04/19 12:14:54;;;;;;;4.38;1.30;;;18.50;57.90;;;;;;5076863;28;20026;-53
2022/04/19 12:17:22;;;;;;;1.48;1.02;;;18.50;56.70;;;;;;5077099;28;20132;-51
2022/04/19 12:19:59;;;;;;;1.77;0.90;;;18.50;56.60;;;;;;5076722;28;20082;-55
2022/04/19 12:22:24;;;;;;;3.35;1.30;;;18.50;55.60;;;;;;5076701;28;20082;-52
2022/04/19 12:24:54;;;;;;;2.28;1.15;;;18.60;55.30;;;;;;5094695;28;20024;-56
2022/04/19 12:27:31;;;;;;;2.45;0.98;;;18.40;55.30;;;;;;5095050;28;20024;-52
2022/04/19 12:30:08;;;;;;;6.40;1.20;;;18.30;56.50;;;;;;5076672;28;20027;-55
2022/04/19 12:35:56;;;;;;;6.32;1.23;;;18.30;56.80;;;;;;5094956;28;20042;-51
2022/04/19 12:38:30;;;;;;;3.85;1.50;;;18.10;55.20;;;;;;5094459;28;20024;-53
2022/04/19 12:40:55;;;;;;;7.72;1.30;;;18.10;56.20;;;;;;5076230;28;20150;-56
2022/04/19 12:43:42;;;;;;;2.20;1.42;;;18.20;55.60;;;;;;5094331;28;20098;-56
2022/04/19 12:46:07;;;;;;;1.67;1.02;;;18.30;56.40;;;;;;5094403;28;20027;-55
2022/04/19 12:48:33;;;;;;;3.42;1.35;;;18.50;56.50;;;;;;5094462;28;20024;-57
2022/04/19 12:51:52;;;;;;;2.53;1.42;;;18.20;56.30;;;;;;5094226;28;20032;-54
2022/04/19 12:54:26;;;;;;;1.83;1.38;;;18.10;55.50;;;;;;5094077;28;20028;-49
2022/04/19 12:57:18;;;;;;;4.53;1.65;;;17.90;56.60;;;;;;5094250;28;20024;-51
2022/04/19 12:59:44;;;;;;;2.17;1.48;;;17.90;56.90;;;;;;5069618;28;20063;-53
2022/04/19 13:02:13;;;;;;;3.92;1.90;;;17.90;57.70;;;;;;5076199;28;20058;-57
2022/04/19 13:04:39;;;;;;;3.03;1.90;;;18.20;57.20;;;;;;5076289;28;20024;-57
2022/04/19 13:13:11;;;;;;;2.95;2.00;;;17.70;58.00;;;;;;5094332;28;20077;-56
2022/04/19 13:15:36;;;;;;;3.67;2.28;;;17.80;59.00;;;;;;5075636;28;20024;-58
2022/04/19 13:18:33;;;;;;;3.10;1.73;;;17.80;59.40;;;;;;5075684;28;20070;-58
2022/04/19 13:20:59;;;;;;;2.90;2.30;;;17.90;59.80;;;;;;5075604;28;20077;-60
2022/04/19 13:23:25;;;;;;;3.03;1.95;;;18.20;59.90;;;;;;5075634;28;20429;-59
2022/04/19 13:25:51;;;;;;;2.85;1.98;;;18.00;59.30;;;;;;5075838;28;20051;-60
2022/04/19 13:28:17;;;;;;;3.95;2.00;;;18.10;59.00;;;;;;5075862;28;20042;-56
2022/04/19 13:30:43;;;;;;;5.45;1.90;;;18.10;59.80;;;;;;5075374;28;20553;-56
2022/04/19 13:33:40;;;;;;;2.58;1.58;;;18.20;59.80;;;;;;5093527;28;20020;-59
2022/04/19 13:36:06;;;;;;;4.43;1.70;;;18.20;59.90;;;;;;5075532;28;20022;-55
2022/04/19 13:38:35;;;;;;;5.43;2.00;;;18.10;60.20;;;;;;5075961;28;20103;-53
2022/04/19 13:41:01;;;;;;;2.83;1.75;;;18.10;59.70;;;;;;5075332;28;20020;-54
2022/04/19 13:43:27;;;;;;;2.22;1.40;;;18.00;58.60;;;;;;5075331;28;20115;-51
2022/04/19 13:45:52;;;;;;;5.32;2.10;;;18.00;59.00;;;;;;5093491;28;20024;-49